Flight Track Log - Related Links

Times and Time Zones

All times are in EDT time to prevent confusion due to time zone crossing. See the SWA3206 flight status page for this flight to view local times or setup timezone preferences in your user account.

Time Position Orientation Groundspeed Altitude Reporting Facility
EDT Latitude Longitude Course Direction KTS MPH feet Rate Location/Type
Mon 08:40:46 PM 33.4167 -112.0833 248° West 189 217 2,900  Level Phoenix TRACON
Mon 08:41:46 PM 33.4000 -112.1500 253° West 250 288 5,100 2,325 Climbing Phoenix TRACON
Mon 08:42:06 PM 33.3931 -112.1700 247° West 244 281 6,000 2,222 Climbing Albuquerque Center
Mon 08:43:07 PM 33.3219 -112.1736 182° South 280 322 8,100 1,073 Climbing Albuquerque Center
Mon 08:44:09 PM 33.2522 -112.1283 151° Southeast 285 328 8,200 1,463 Climbing Albuquerque Center
Mon 08:45:10 PM 33.2528 -112.0397 90° East 294 338 11,100 3,268 Climbing Albuquerque Center
Mon 08:46:12 PM 33.2917 -111.9164 69° East 328 377 14,900 3,463 Climbing Albuquerque Center
Mon 08:47:13 PM 33.3272 -111.8078 69° East 346 398 18,200 2,927 Climbing Albuquerque Center
Mon 08:48:15 PM 33.3631 -111.6933 69° East 362 417 20,900 2,468 Climbing Albuquerque Center
Mon 08:49:17 PM 33.4042 -111.5767 67° East 377 434 23,300 2,439 Climbing Albuquerque Center
Mon 08:50:18 PM 33.4492 -111.4561 66° East 393 452 25,900 2,341 Climbing Albuquerque Center
Mon 08:51:20 PM 33.4947 -111.3331 66° East 403 464 28,100 1,951 Climbing Albuquerque Center
Mon 08:52:21 PM 33.5408 -111.2078 66° East 411 473 29,900 2,244 Climbing Albuquerque Center
Mon 08:53:23 PM 33.5956 -111.0556 67° East 416 479 32,700 2,293 Climbing Albuquerque Center
Mon 08:54:24 PM 33.6422 -110.9314 66° East 412 474 34,600 1,707 Climbing Albuquerque Center
Mon 08:55:26 PM 33.6942 -110.8142 62° Northeast 402 463 36,200 1,659 Climbing Albuquerque Center
Mon 08:56:27 PM 33.7497 -110.6997 60° Northeast 400 460 38,000 1,366 Climbing Albuquerque Center
Mon 08:57:29 PM 33.8039 -110.5861 60° Northeast 395 455 39,000 488 Climbing Albuquerque Center
Mon 08:58:30 PM 33.8589 -110.4719 60° Northeast 396 456 39,000  Level Albuquerque Center
Mon 08:59:32 PM 33.9158 -110.3531 60° Northeast 398 458 39,000  Level Albuquerque Center
Mon 09:00:33 PM 33.9697 -110.2375 61° Northeast 399 459 39,000 341 Level Albuquerque Center
Mon 09:01:35 PM 34.0369 -110.0964 60° Northeast 404 465 39,700 878 Climbing Albuquerque Center
Mon 09:02:36 PM 34.0917 -109.9819 60° Northeast 406 467 40,800 634 Climbing Albuquerque Center
Mon 09:03:38 PM 34.1531 -109.8519 60° Northeast 402 463 41,000 98 Climbing Albuquerque Center
Mon 09:04:39 PM 34.2056 -109.7425 60° Northeast 397 457 41,000  Level Albuquerque Center
Mon 09:05:41 PM 34.2572 -109.6322 60° Northeast 394 453 41,000  Level Albuquerque Center
Mon 09:06:42 PM 34.3172 -109.5039 60° Northeast 394 453 41,000  Level Albuquerque Center
Mon 09:07:43 PM 34.3681 -109.3939 61° Northeast 392 451 41,000  Level Albuquerque Center
Mon 09:08:45 PM 34.4272 -109.2653 61° Northeast 391 450 41,000  Level Albuquerque Center
Mon 09:09:46 PM 34.4775 -109.1597 60° Northeast 386 444 41,000  Level Albuquerque Center
Mon 09:10:48 PM 34.5264 -109.0528 61° Northeast 382 440 41,000  Level Albuquerque Center
Mon 09:11:49 PM 34.5847 -108.9261 61° Northeast 383 441 41,000  Level Albuquerque Center
Mon 09:12:51 PM 34.6342 -108.8181 61° Northeast 384 442 41,000  Level Albuquerque Center
Mon 09:13:52 PM 34.6925 -108.6911 61° Northeast 385 443 41,000  Level Albuquerque Center
Mon 09:14:53 PM 34.7403 -108.5794 62° Northeast 389 448 41,000  Level Albuquerque Center
Mon 09:15:55 PM 34.7767 -108.4622 69° East 392 451 41,000  Level Albuquerque Center
Mon 09:16:56 PM 34.8167 -108.3392 68° East 392 451 41,000  Level Albuquerque Center
Mon 09:17:57 PM 34.8600 -108.2067 68° East 390 449 41,000  Level Albuquerque Center
Mon 09:18:59 PM 34.9047 -108.0706 68° East 389 448 41,000  Level Albuquerque Center
Mon 09:20:00 PM 34.9414 -107.9553 69° East 385 443 41,000  Level Albuquerque Center
Mon 09:21:02 PM 34.9806 -107.8292 69° East 382 440 41,000  Level Albuquerque Center
Mon 09:22:03 PM 35.0200 -107.7089 68° East 381 438 41,000  Level Albuquerque Center
Mon 09:23:04 PM 35.0575 -107.5900 69° East 379 436 41,000  Level Albuquerque Center
Mon 09:24:06 PM 35.0950 -107.4700 69° East 377 434 41,000  Level Albuquerque Center
Mon 09:25:07 PM 35.1336 -107.3483 69° East 381 438 41,000  Level Albuquerque Center
Mon 09:26:09 PM 35.1719 -107.2253 69° East 385 443 41,000  Level Albuquerque Center
Mon 09:27:10 PM 35.2150 -107.0889 69° East 388 447 41,000  Level Albuquerque Center
Mon 09:28:11 PM 35.2506 -106.9731 69° East 382 440 41,000  Level Albuquerque Center
Mon 09:29:13 PM 35.2928 -106.8381 69° East 381 438 41,000  Level Albuquerque Center
Mon 09:30:14 PM 35.3311 -106.7217 68° East 385 443 41,000  Level Albuquerque Center
Mon 09:31:15 PM 35.3703 -106.5853 71° East 381 438 41,000  Level Albuquerque Center
Mon 09:32:17 PM 35.4094 -106.4614 69° East 386 444 41,000  Level Albuquerque Center
Mon 09:33:18 PM 35.4475 -106.3394 69° East 383 441 41,000  Level Albuquerque Center
Mon 09:34:19 PM 35.4844 -106.2164 70° East 384 442 41,000  Level Albuquerque Center
Mon 09:35:21 PM 35.5200 -106.0922 71° East 385 443 41,000  Level Albuquerque Center
Mon 09:36:22 PM 35.5586 -105.9689 69° East 386 444 41,000  Level Albuquerque Center
Mon 09:37:23 PM 35.5956 -105.8447 70° East 385 443 41,000  Level Albuquerque Center
Mon 09:38:25 PM 35.6311 -105.7194 71° East 385 443 41,000  Level Albuquerque Center
Mon 09:39:26 PM 35.6686 -105.5992 69° East 383 441 41,000  Level Albuquerque Center
Mon 09:40:28 PM 35.7106 -105.4497 71° East 384 442 41,000  Level Albuquerque Center
Mon 09:41:29 PM 35.7475 -105.3242 70° East 385 443 41,000  Level Albuquerque Center
Mon 09:42:30 PM 35.7850 -105.1994 70° East 384 442 41,000  Level Albuquerque Center
Mon 09:43:32 PM 35.8194 -105.0750 71° East 381 438 41,000  Level Albuquerque Center
Mon 09:44:33 PM 35.8569 -104.9483 70° East 386 444 41,000  Level Albuquerque Center
Mon 09:45:34 PM 35.8947 -104.8219 70° East 387 445 41,000  Level Albuquerque Center
Mon 09:46:36 PM 35.9306 -104.6950 71° East 388 447 41,000  Level Albuquerque Center
Mon 09:47:37 PM 35.9658 -104.5694 71° East 384 442 41,000  Level Albuquerque Center
Mon 09:48:38 PM 36.0008 -104.4450 71° East 381 438 41,000  Level Albuquerque Center
Mon 09:49:40 PM 36.0367 -104.3186 71° East 384 442 41,000  Level Albuquerque Center
Mon 09:50:41 PM 36.0733 -104.1922 70° East 385 443 41,000  Level Albuquerque Center
Mon 09:51:42 PM 36.1081 -104.0642 71° East 387 445 41,000  Level Albuquerque Center
Mon 09:52:44 PM 36.1450 -103.9367 70° East 388 447 41,000  Level Albuquerque Center
Mon 09:53:45 PM 36.1817 -103.8111 70° East 385 443 41,000  Level Albuquerque Center
Mon 09:54:46 PM 36.2167 -103.6808 72° East 390 449 41,000  Level Albuquerque Center
Mon 09:55:48 PM 36.2522 -103.5522 71° East 392 451 41,000  Level Albuquerque Center
Mon 09:56:49 PM 36.2881 -103.4244 71° East 391 450 41,000  Level Albuquerque Center
Mon 09:57:50 PM 36.3231 -103.2922 72° East 396 456 41,000  Level Albuquerque Center
Mon 09:58:52 PM 36.3633 -103.1397 72° East 396 456 41,000  Level Albuquerque Center
Mon 09:59:53 PM 36.4000 -103.0106 71° East 394 453 41,000  Level Albuquerque Center
Mon 10:00:54 PM 36.4347 -102.8789 72° East 397 457 41,000  Level Albuquerque Center
Mon 10:01:56 PM 36.4664 -102.7536 73° East 398 458 41,000  Level Albuquerque Center
Mon 10:02:57 PM 36.5014 -102.6228 72° East 398 458 41,000  Level Albuquerque Center
Mon 10:03:58 PM 36.5367 -102.4900 72° East 402 463 41,000  Level Albuquerque Center
Mon 10:05:00 PM 36.5717 -102.3578 72° East 403 464 41,000  Level Albuquerque Center
Mon 10:06:01 PM 36.6100 -102.2111 72° East 398 458 41,000  Level Albuquerque Center
Mon 10:07:02 PM 36.6425 -102.0847 72° East 400 460 41,000  Level Albuquerque Center
Mon 10:08:04 PM 36.6808 -101.9383 72° East 399 459 41,000  Level Albuquerque Center
Mon 10:09:05 PM 36.7122 -101.8144 72° East 395 455 41,000  Level Albuquerque Center
Mon 10:10:06 PM 36.7444 -101.6897 72° East 396 456 41,000  Level Albuquerque Center
Mon 10:11:08 PM 36.7814 -101.5456 72° East 393 452 41,000  Level Albuquerque Center
Mon 10:12:09 PM 36.8133 -101.4203 72° East 394 453 41,000  Level Albuquerque Center
Mon 10:13:14 PM 36.8503 -101.2739 72° East 397 457 41,000  Level Kansas City Center
Mon 10:14:16 PM 36.8869 -101.1269 73° East 398 458 41,000  Level Kansas City Center
Mon 10:15:17 PM 36.9194 -100.9989 72° East 402 463 41,000  Level Kansas City Center
Mon 10:16:18 PM 36.9503 -100.8725 73° East 400 460 41,000  Level Kansas City Center
Mon 10:17:20 PM 36.9869 -100.7236 73° East 403 464 41,000  Level Kansas City Center
Mon 10:18:21 PM 37.0189 -100.5972 72° East 401 461 41,000  Level Kansas City Center
Mon 10:19:23 PM 37.0542 -100.4500 73° East 399 459 41,000  Level Kansas City Center
Mon 10:20:24 PM 37.0850 -100.3244 73° East 397 457 41,000  Level Kansas City Center
Mon 10:21:25 PM 37.1197 -100.1786 73° East 394 453 41,000  Level Kansas City Center
Mon 10:22:27 PM 37.1500 -100.0539 73° East 393 452 41,000  Level Kansas City Center
Mon 10:23:28 PM 37.1794 -99.9269 74° East 396 456 41,000  Level Kansas City Center
Mon 10:24:29 PM 37.2153 -99.7792 73° East 398 458 41,000  Level Kansas City Center
Mon 10:25:31 PM 37.2456 -99.6508 73° East 400 460 41,000  Level Kansas City Center
Mon 10:26:32 PM 37.2797 -99.5042 74° East 396 456 41,000  Level Kansas City Center
Mon 10:27:33 PM 37.3111 -99.3733 73° East 402 463 41,000  Level Kansas City Center
Mon 10:28:35 PM 37.3436 -99.2406 73° East 401 461 41,000  Level Kansas City Center
Mon 10:29:36 PM 37.3747 -99.1072 74° East 399 459 41,000  Level Kansas City Center
Mon 10:30:37 PM 37.4022 -98.9711 76° East 402 463 41,000  Level Kansas City Center
Mon 10:31:39 PM 37.4333 -98.8369 74° East 402 463 41,000  Level Kansas City Center
Mon 10:32:40 PM 37.4647 -98.7014 74° East 403 464 41,000  Level Kansas City Center
Mon 10:33:41 PM 37.4947 -98.5656 74° East 402 463 41,000  Level Kansas City Center
Mon 10:34:43 PM 37.5256 -98.4294 74° East 405 466 41,000  Level Kansas City Center
Mon 10:35:44 PM 37.5619 -98.2669 74° East 405 466 41,000  Level Kansas City Center
Mon 10:36:45 PM 37.5919 -98.1317 74° East 403 464 41,000  Level Kansas City Center
Mon 10:37:47 PM 37.6211 -97.9953 75° East 405 466 41,000  Level Kansas City Center
Mon 10:38:48 PM 37.6486 -97.8661 75° East 407 468 41,000  Level Kansas City Center
Mon 10:39:49 PM 37.6786 -97.7261 75° East 410 472 41,000  Level Kansas City Center
Mon 10:40:50 PM 37.7150 -97.5597 74° East 409 471 41,000  Level Kansas City Center
Mon 10:41:52 PM 37.7406 -97.4483 74° East 407 468 41,000  Level Kansas City Center
Mon 10:42:53 PM 37.7764 -97.2800 75° East 413 475 41,000  Level Kansas City Center
Mon 10:43:54 PM 37.8053 -97.1417 75° East 409 471 41,000  Level Kansas City Center
Mon 10:44:56 PM 37.8347 -97.0025 75° East 411 473 41,000  Level Kansas City Center
Mon 10:45:57 PM 37.8642 -96.8644 75° East 409 471 41,000  Level Kansas City Center
Mon 10:46:58 PM 37.8931 -96.7258 75° East 407 468 41,000  Level Kansas City Center
Mon 10:48:00 PM 37.9217 -96.5869 75° East 408 470 41,000  Level Kansas City Center
Mon 10:49:01 PM 37.9497 -96.4483 76° East 408 470 41,000  Level Kansas City Center
Mon 10:50:02 PM 37.9783 -96.3081 75° East 410 472 41,000  Level Kansas City Center
Mon 10:51:03 PM 38.0069 -96.1689 75° East 409 471 41,000  Level Kansas City Center
Mon 10:52:05 PM 38.0386 -96.0064 76° East 406 467 41,000  Level Kansas City Center
Mon 10:53:06 PM 38.0661 -95.8722 75° East 411 473 41,000  Level Kansas City Center
Mon 10:54:07 PM 38.0967 -95.7144 76° East 413 475 41,000  Level Kansas City Center
Mon 10:55:08 PM 38.1228 -95.5800 76° East 412 474 41,000  Level Kansas City Center
Mon 10:56:09 PM 38.1497 -95.4453 76° East 413 475 41,000  Level Kansas City Center
Mon 10:57:11 PM 38.1803 -95.2886 76° East 411 473 41,000  Level Kansas City Center
Mon 10:58:12 PM 38.2061 -95.1511 77° East 416 479 41,000  Level Kansas City Center
Mon 10:59:13 PM 38.2358 -94.9931 76° East 416 479 41,000  Level Kansas City Center
Mon 11:00:14 PM 38.2625 -94.8578 76° East 414 476 41,000  Level Kansas City Center
Mon 11:01:15 PM 38.2872 -94.7233 77° East 412 474 41,000  Level Kansas City Center
Mon 11:02:16 PM 38.3181 -94.5625 76° East 416 479 41,000  Level Kansas City Center
Mon 11:03:17 PM 38.3431 -94.4275 77° East 413 475 41,000  Level Kansas City Center
Mon 11:04:18 PM 38.3731 -94.2683 76° East 413 475 41,000  Level Kansas City Center
Mon 11:05:19 PM 38.3978 -94.1328 77° East 413 475 41,000  Level Kansas City Center
Mon 11:06:20 PM 38.4211 -93.9989 77° East 407 468 41,000  Level Kansas City Center
Mon 11:07:22 PM 38.4469 -93.8542 77° East 412 474 41,000  Level Kansas City Center
Mon 11:08:23 PM 38.4733 -93.7111 77° East 413 475 41,000  Level Kansas City Center
Mon 11:09:24 PM 38.4989 -93.5672 77° East 414 476 41,000  Level Kansas City Center
Mon 11:10:25 PM 38.5258 -93.4225 77° East 416 479 41,000  Level Kansas City Center
Mon 11:11:26 PM 38.5553 -93.2486 78° East 416 479 41,000  Level Kansas City Center
Mon 11:12:27 PM 38.5819 -93.1042 77° East 416 479 41,000  Level Kansas City Center
Mon 11:13:28 PM 38.6061 -92.9569 78° East 418 481 41,000  Level Kansas City Center
Mon 11:14:29 PM 38.6311 -92.8128 77° East 416 479 41,000  Level Kansas City Center
Mon 11:15:31 PM 38.6553 -92.6667 78° East 416 479 41,000  Level Kansas City Center
Mon 11:16:32 PM 38.6800 -92.5192 78° East 419 482 41,000  Level Kansas City Center
Mon 11:17:33 PM 38.7039 -92.3736 78° East 418 481 41,000  Level Kansas City Center
Mon 11:18:34 PM 38.7281 -92.2281 78° East 416 479 41,000  Level Kansas City Center
Mon 11:19:35 PM 38.7522 -92.0822 78° East 416 479 41,000  Level Kansas City Center
Mon 11:20:36 PM 38.7753 -91.9358 79° East 417 480 41,000  Level Kansas City Center
Mon 11:21:37 PM 38.7972 -91.7892 79° East 417 480 41,000  Level Kansas City Center
Mon 11:22:38 PM 38.8231 -91.6364 78° East 418 481 41,000  Level Kansas City Center
Mon 11:23:39 PM 38.8458 -91.4903 79° East 418 481 41,000  Level Kansas City Center
Mon 11:24:40 PM 38.8694 -91.3436 78° East 420 483 41,000  Level Kansas City Center
Mon 11:25:41 PM 38.8922 -91.1961 79° East 421 484 41,000  Level Kansas City Center
Mon 11:26:42 PM 38.9147 -91.0494 79° East 419 482 41,000  Level Kansas City Center
Mon 11:27:43 PM 38.9381 -90.9017 78° East 420 483 41,000  Level Kansas City Center
Mon 11:28:44 PM 38.9606 -90.7556 79° East 417 480 41,000  Level Kansas City Center
Mon 11:29:45 PM 38.9836 -90.6067 79° East 420 483 41,000  Level Kansas City Center
Mon 11:30:47 PM 39.0058 -90.4564 79° East 423 487 41,000  Level Kansas City Center
Mon 11:31:48 PM 39.0275 -90.3058 79° East 424 488 41,000  Level Kansas City Center
Mon 11:32:49 PM 39.0497 -90.1558 79° East 424 488 41,000  Level Kansas City Center
Mon 11:33:50 PM 39.0706 -90.0053 80° East 425 489 41,000  Level Kansas City Center
Mon 11:34:51 PM 39.0956 -89.8350 79° East 420 483 41,000  Level Kansas City Center
Mon 11:35:52 PM 39.1167 -89.6853 80° East 422 486 41,000  Level Kansas City Center
Mon 11:36:53 PM 39.1389 -89.5236 80° East 424 488 41,000  Level Kansas City Center
Mon 11:37:54 PM 39.1597 -89.3750 80° East 422 486 41,000  Level Kansas City Center
Mon 11:38:55 PM 39.1794 -89.2294 80° East 427 491 41,000  Level Kansas City Center
Mon 11:39:56 PM 39.1994 -89.0803 80° East 424 488 41,000  Level Kansas City Center
Mon 11:40:57 PM 39.2211 -88.9336 79° East 421 484 41,000  Level Kansas City Center
Mon 11:41:58 PM 39.2425 -88.7839 80° East 424 488 41,000  Level Kansas City Center
Mon 11:42:59 PM 39.2625 -88.6344 80° East 424 488 41,000  Level Kansas City Center
Mon 11:44:00 PM 39.2794 -88.4911 81° East 423 487 41,000  Level Kansas City Center
Mon 11:45:01 PM 39.2994 -88.3417 80° East 421 484 41,000  Level Kansas City Center
Mon 11:46:02 PM 39.3233 -88.1581 80° East 426 490 41,000  Level Kansas City Center
Mon 11:47:03 PM 39.3419 -88.0053 81° East 427 491 41,000  Level Kansas City Center
Mon 11:48:04 PM 39.3608 -87.8511 81° East 430 495 41,000  Level Kansas City Center
Mon 11:49:16 PM 39.3800 -87.6900 81° East 430 495 41,000  Level Indianapolis Center
Mon 11:50:17 PM 39.3992 -87.5383 81° East 432 497 41,000  Level Indianapolis Center
Mon 11:51:18 PM 39.4178 -87.3864 81° East 431 496 41,000  Level Indianapolis Center
Mon 11:52:18 PM 39.4358 -87.2361 81° East 426 490 41,000  Level Indianapolis Center
Mon 11:53:19 PM 39.4567 -87.0556 81° East 425 489 41,000  Level Indianapolis Center
Mon 11:54:20 PM 39.4744 -86.9064 81° East 423 487 41,000  Level Indianapolis Center
Mon 11:55:21 PM 39.4906 -86.7572 82° East 422 486 41,000  Level Indianapolis Center
Mon 11:56:22 PM 39.5075 -86.6089 82° East 422 486 41,000  Level Indianapolis Center
Mon 11:57:23 PM 39.5247 -86.4603 81° East 422 486 41,000  Level Indianapolis Center
Mon 11:58:24 PM 39.5403 -86.3119 82° East 422 486 41,000  Level Indianapolis Center
Mon 11:59:25 PM 39.5564 -86.1642 82° East 423 487 41,000  Level Indianapolis Center
Tue 12:00:25 AM 39.5733 -86.0167 81° East 423 487 41,000  Level Indianapolis Center
Tue 12:01:26 AM 39.5925 -85.8389 82° East 421 484 41,000  Level Indianapolis Center
Tue 12:02:27 AM 39.6089 -85.6906 82° East 420 483 41,000  Level Indianapolis Center
Tue 12:03:28 AM 39.6239 -85.5425 82° East 418 481 41,000  Level Indianapolis Center
Tue 12:04:29 AM 39.6394 -85.3939 82° East 419 482 41,000  Level Indianapolis Center
Tue 12:05:30 AM 39.6547 -85.2439 82° East 422 486 41,000  Level Indianapolis Center
Tue 12:06:30 AM 39.6692 -85.0931 83° East 422 486 41,000  Level Indianapolis Center
Tue 12:07:31 AM 39.6811 -84.9406 84° East 427 491 41,000  Level Indianapolis Center
Tue 12:08:32 AM 39.6900 -84.7736 86° East 431 496 41,000  Level Indianapolis Center
Tue 12:09:33 AM 39.6994 -84.6153 86° East 436 502 41,000  Level Indianapolis Center
Tue 12:10:34 AM 39.7072 -84.4569 86° East 436 502 41,000 -545 Level Indianapolis Center
Tue 12:11:34 AM 39.7150 -84.3017 86° East 430 495 39,900 -1,041 Descending Indianapolis Center
Tue 12:12:35 AM 39.7236 -84.1469 86° East 426 490 38,900 -934 Descending Indianapolis Center
Tue 12:13:36 AM 39.7314 -83.9886 86° East 436 502 38,000 -934 Descending Indianapolis Center
Tue 12:14:37 AM 39.7389 -83.8306 86° East 435 501 37,000 -496 Descending Indianapolis Center
Tue 12:15:37 AM 39.7461 -83.6772 86° East 427 491 37,000  Level Indianapolis Center
Tue 12:16:38 AM 39.7528 -83.5194 87° East 420 483 37,000  Level Indianapolis Center
Tue 12:17:39 AM 39.7600 -83.3792 86° East 419 482 37,000  Level Indianapolis Center
Tue 12:18:39 AM 39.7669 -83.2297 86° East 418 481 37,000  Level Indianapolis Center
Tue 12:19:40 AM 39.7731 -83.0792 87° East 416 479 37,000  Level Indianapolis Center
Tue 12:20:41 AM 39.7789 -82.9281 87° East 417 480 37,000  Level Indianapolis Center
Tue 12:21:41 AM 39.7844 -82.7792 87° East 412 474 37,000  Level Indianapolis Center
Tue 12:22:42 AM 39.7914 -82.6267 87° East 418 481 37,000  Level Indianapolis Center
Tue 12:23:43 AM 39.7964 -82.4758 87° East 417 480 37,000  Level Indianapolis Center
Tue 12:24:43 AM 39.8017 -82.3253 87° East 415 478 37,000  Level Indianapolis Center
Tue 12:25:44 AM 39.8075 -82.1733 87° East 416 479 37,000  Level Indianapolis Center
Tue 12:26:44 AM 39.8075 -82.0194 90° East 422 486 37,000  Level Indianapolis Center
Tue 12:27:45 AM 39.8011 -81.8622 93° East 430 495 37,000  Level Indianapolis Center
Tue 12:28:45 AM 39.7942 -81.7067 93° East 430 495 37,000  Level Indianapolis Center
Tue 12:29:46 AM 39.7881 -81.5497 93° East 431 496 37,000  Level Indianapolis Center
Tue 12:30:09 AM 39.7864 -81.4881 92° East 433 498 37,000 -651 Level Cleveland Center
Tue 12:31:09 AM 39.7811 -81.3339 93° East 428 493 36,100 -900 Descending Cleveland Center
Tue 12:32:09 AM 39.7758 -81.1800 93° East 421 484 35,200 -550 Descending Cleveland Center
Tue 12:33:09 AM 39.7683 -81.0261 94° East 426 490 35,000 -100 Descending Cleveland Center
Tue 12:34:09 AM 39.7625 -80.8694 93° East 426 490 35,000  Level Cleveland Center
Tue 12:35:09 AM 39.7544 -80.7128 94° East 426 490 35,000  Level Cleveland Center
Tue 12:36:09 AM 39.7461 -80.5561 94° East 426 490 35,000  Level Cleveland Center
Tue 12:37:50 AM 39.7292 -80.2769 94° East 442 509 35,000  Level Indianapolis Center
Tue 12:38:51 AM 39.7206 -80.1189 94° East 441 507 35,000  Level Indianapolis Center
Tue 12:40:00 AM 39.7125 -79.9344 93° East 425 489 35,000  Level Washington Center
Tue 12:41:00 AM 39.7036 -79.7722 94° East 430 495 35,000  Level Washington Center
Tue 12:42:00 AM 39.6883 -79.6150 97° East 435 501 35,000 -350 Level Washington Center
Tue 12:43:00 AM 39.6622 -79.4569 102° East 440 506 34,300 -787 Descending Washington Center
Tue 12:44:02 AM 39.6358 -79.2967 102° East 445 512 33,400 -950 Descending Washington Center
Tue 12:45:00 AM 39.6094 -79.1364 102° East 450 518 32,400 -1,041 Descending Washington Center
Tue 12:46:03 AM 39.5811 -78.9681 102° East 463 533 31,300 -1,525 Descending Washington Center
Tue 12:47:02 AM 39.5542 -78.8081 102° East 463 533 29,300 -2,168 Descending Washington Center
Tue 12:48:02 AM 39.5247 -78.6558 104° East 452 520 27,000 -2,034 Descending Washington Center
Tue 12:49:00 AM 39.5050 -78.5261 101° East 434 499 25,300 -1,983 Descending Washington Center
Tue 12:50:00 AM 39.4794 -78.3797 103° East 420 483 23,100 -2,066 Descending Washington Center
Tue 12:51:02 AM 39.4533 -78.2389 103° East 408 470 21,100 -2,000 Descending Washington Center
Tue 12:52:00 AM 39.4311 -78.1039 102° East 392 451 19,100 -1,934 Descending Washington Center
Tue 12:53:03 AM 39.4089 -77.9767 103° East 378 435 17,200 -2,000 Descending Washington Center
Tue 12:54:00 AM 39.3861 -77.8553 104° East 362 417 15,100 -1,100 Descending Washington Center
Tue 12:55:03 AM 39.3633 -77.7364 104° East 344 396 15,000 -50 Descending Washington Center
Tue 12:56:00 AM 39.3444 -77.6231 102° East 332 382 15,000 -568 Level Washington Center
Tue 12:56:38 AM 39.3333 -77.5667 104° East 324 373 14,100 -1,592 Descending Potomac TRACON
Tue 12:57:38 AM 39.3167 -77.4500 100° East 317 365 12,400 -1,700 Descending Potomac TRACON
Tue 12:58:38 AM 39.3000 -77.3500 102° East 310 357 10,700 -1,737 Descending Potomac TRACON
Tue 12:59:32 AM 39.2833 -77.2500 102° East 301 346 9,100 -1,204 Descending Potomac TRACON
Tue 01:02:00 AM 39.2577 -77.1102 57° Northeast  Level Estimated
Tue 01:03:27 AM 39.1500 -76.8833 57° Northeast 302 348 4,900  Level Potomac TRACON
Tue 01:04:21 AM 39.1000 -76.8000 128° Southeast 287 330 3,800 -1,421 Descending Potomac TRACON
Tue 01:05:21 AM 39.0667 -76.7333 123° Southeast 263 303 2,200 -1,050 Descending Potomac TRACON
Tue 01:06:21 AM 39.0833 -76.6667 72° East 189 217 1,700 -333 Descending Potomac TRACON
Tue 01:07:27 AM 39.1000 -76.6333 57° Northeast 146 168 1,500 -425 Descending Potomac TRACON
Tue 01:08:28 AM 39.1333 -76.6333 360° North 154 177 800 -689 Descending Potomac TRACON
Tue 01:10:00 AM 39.1667 -76.6667 North  Level FlightAware Approximate
Tue 01:17:00 AM 39.1754 -76.6683 North  Level Estimated
Tue 01:18:00 AM 39.1754 -76.6683 North  Level Estimated
Tue 01:19:00 AM 39.1754 -76.6683 North  Level Estimated
Tue 01:20:00 AM 39.1754 -76.6683 North  Level Estimated
Tue 01:21:00 AM 39.1754 -76.6683 North  Level Estimated

Login

Don't have an account? Register now (free) for customized features, flight alerts, and more!